createdAt,value
2022-09-07T00:00:37.965Z,52.84
2022-09-07T00:03:05.887Z,53.17
2022-09-07T00:05:33.479Z,52.89
2022-09-07T00:08:00.808Z,52.87
2022-09-07T00:10:28.100Z,53.10
2022-09-07T00:12:55.223Z,52.79
2022-09-07T00:15:23.846Z,53.33
2022-09-07T00:17:50.922Z,53.48
2022-09-07T00:20:18.219Z,52.85
2022-09-07T00:22:46.415Z,53.50
2022-09-07T00:25:13.520Z,53.33
2022-09-07T00:27:41.479Z,53.69
2022-09-07T00:30:09.021Z,53.57
2022-09-07T00:32:36.068Z,53.36
2022-09-07T00:35:03.473Z,53.97
2022-09-07T00:37:30.631Z,53.72
2022-09-07T00:39:57.863Z,53.84
2022-09-07T00:42:25.045Z,54.13
2022-09-07T00:45:10.518Z,54.12
2022-09-07T00:48:18.306Z,53.37
2022-09-07T00:50:51.397Z,54.25
2022-09-07T00:53:23.888Z,53.95
2022-09-07T00:55:52.971Z,53.96
2022-09-07T00:58:22.220Z,54.27
2022-09-07T01:00:51.058Z,53.98
2022-09-07T01:03:23.228Z,54.24
2022-09-07T01:05:59.577Z,54.22
2022-09-07T01:08:27.275Z,53.41
2022-09-07T01:10:55.699Z,54.25
2022-09-07T01:13:23.227Z,54.15
2022-09-07T01:16:27.663Z,54.42
2022-09-07T01:19:09.307Z,54.60
2022-09-07T01:21:57.821Z,54.09
2022-09-07T01:24:42.876Z,54.67
2022-09-07T01:27:47.317Z,54.56
2022-09-07T01:30:23.280Z,55.03
2022-09-07T01:33:09.267Z,55.19
2022-09-07T01:35:48.318Z,55.50
2022-09-07T01:38:27.997Z,55.06
2022-09-07T01:41:01.167Z,55.24
2022-09-07T01:43:45.644Z,55.62
2022-09-07T01:46:21.348Z,55.24
2022-09-07T01:48:53.287Z,55.38
2022-09-07T01:51:23.624Z,55.56
2022-09-07T01:53:57.021Z,55.83
2022-09-07T01:56:31.754Z,56.12
2022-09-07T01:59:10.150Z,55.91
2022-09-07T02:01:45.958Z,56.04
2022-09-07T02:04:38.756Z,56.40
2022-09-07T02:07:17.946Z,56.49
2022-09-07T02:10:05.877Z,56.38
2022-09-07T02:12:51.180Z,56.65
2022-09-07T02:15:25.280Z,56.24
2022-09-07T02:17:58.746Z,56.43
2022-09-07T02:20:31.612Z,56.95
2022-09-07T02:23:02.897Z,56.70
2022-09-07T02:25:38.102Z,56.99
2022-09-07T02:28:10.759Z,57.35
2022-09-07T02:30:38.303Z,57.66
2022-09-07T02:33:06.196Z,57.51
2022-09-07T02:35:34.128Z,57.42
2022-09-07T02:38:05.138Z,57.73
2022-09-07T02:40:32.788Z,57.57
2022-09-07T02:43:02.726Z,57.71
2022-09-07T02:45:52.303Z,57.86
2022-09-07T02:48:45.341Z,57.44
2022-09-07T02:51:40.947Z,57.41
2022-09-07T02:54:44.164Z,57.55
2022-09-07T02:57:26.600Z,58.30
2022-09-07T03:00:09.900Z,57.87
2022-09-07T03:02:58.426Z,58.24
2022-09-07T03:05:55.416Z,58.04
2022-09-07T03:08:32.357Z,58.07
2022-09-07T03:11:00.241Z,58.27
2022-09-07T03:13:29.690Z,58.10
2022-09-07T03:15:57.259Z,58.06
2022-09-07T03:18:25.754Z,58.22
2022-09-07T03:20:53.707Z,58.35
2022-09-07T03:23:20.966Z,57.73
2022-09-07T03:25:49.357Z,58.13
2022-09-07T03:28:16.508Z,58.17
2022-09-07T03:30:44.669Z,58.14
2022-09-07T03:33:12.117Z,58.25
2022-09-07T03:35:39.236Z,58.08
2022-09-07T03:38:06.280Z,58.09
2022-09-07T03:40:33.346Z,58.18
2022-09-07T03:43:00.427Z,58.05
2022-09-07T03:45:27.504Z,58.65
2022-09-07T03:47:54.598Z,58.54
2022-09-07T03:50:21.686Z,58.24
2022-09-07T03:52:48.746Z,58.58
2022-09-07T03:55:15.886Z,58.57
2022-09-07T03:57:43.794Z,58.31
2022-09-07T04:00:11.628Z,57.86
2022-09-07T04:02:41.921Z,57.88
2022-09-07T04:05:09.495Z,57.88
2022-09-07T04:07:36.867Z,58.28
2022-09-07T04:10:04.397Z,58.31
2022-09-07T04:12:31.473Z,58.77
2022-09-07T04:14:58.578Z,58.18
2022-09-07T04:17:25.697Z,58.36
2022-09-07T04:19:52.686Z,58.61
2022-09-07T04:22:19.778Z,58.22
2022-09-07T04:24:46.834Z,58.21
2022-09-07T04:27:13.958Z,58.18
2022-09-07T04:29:41.017Z,58.61
2022-09-07T04:32:11.391Z,58.61
2022-09-07T04:34:40.683Z,58.58
2022-09-07T04:37:07.813Z,58.82
2022-09-07T04:39:35.628Z,58.93
2022-09-07T04:42:02.789Z,59.34
2022-09-07T04:44:29.798Z,59.25
2022-09-07T04:46:57.047Z,59.41
2022-09-07T04:49:24.109Z,58.97
2022-09-07T04:51:51.230Z,59.25
2022-09-07T04:54:18.280Z,59.15
2022-09-07T04:56:45.470Z,58.87
2022-09-07T04:59:12.730Z,59.21
2022-09-07T05:01:40.203Z,59.22
2022-09-07T05:04:07.267Z,58.93
2022-09-07T05:06:34.781Z,59.13
2022-09-07T05:09:01.906Z,59.03
2022-09-07T05:11:30.103Z,58.63
2022-09-07T05:13:59.039Z,58.93
2022-09-07T05:16:27.071Z,58.67
2022-09-07T05:19:01.363Z,58.51
2022-09-07T05:21:34.078Z,58.45
2022-09-07T05:24:01.641Z,58.40
2022-09-07T05:26:30.854Z,57.93
2022-09-07T05:31:48.367Z,57.13
2022-09-07T05:34:31.564Z,56.66
2022-09-07T05:36:59.617Z,56.24
2022-09-07T05:39:27.052Z,56.61
2022-09-07T05:41:54.363Z,56.17
2022-09-07T05:47:09.054Z,55.22
2022-09-07T05:49:36.094Z,55.00
2022-09-07T05:52:03.725Z,54.69
2022-09-07T05:54:30.754Z,54.09
2022-09-07T05:56:57.790Z,53.89
2022-09-07T05:59:24.944Z,53.55
2022-09-07T06:01:52.011Z,52.89
2022-09-07T06:04:19.276Z,52.95
2022-09-07T06:07:04.558Z,52.36
2022-09-07T06:09:33.667Z,52.18
2022-09-07T06:12:00.818Z,51.63
2022-09-07T06:14:27.866Z,51.40
2022-09-07T06:16:54.956Z,50.79
2022-09-07T06:19:22.114Z,50.93
2022-09-07T06:21:49.206Z,50.62
2022-09-07T06:24:16.392Z,50.66
2022-09-07T06:26:43.594Z,50.26
2022-09-07T06:29:10.810Z,50.15
2022-09-07T06:34:25.843Z,49.88
2022-09-07T06:36:53.105Z,49.64
2022-09-07T06:39:20.170Z,48.97
2022-09-07T06:42:02.582Z,48.57
2022-09-07T06:44:31.806Z,49.03
2022-09-07T06:49:29.261Z,48.17
2022-09-07T06:51:56.454Z,47.63
2022-09-07T06:57:10.769Z,47.41
2022-09-07T06:59:38.671Z,46.46
2022-09-07T07:02:07.296Z,46.24
2022-09-07T07:04:40.322Z,44.93
2022-09-07T07:07:14.680Z,44.37
2022-09-07T07:09:42.280Z,44.27
2022-09-07T07:12:10.755Z,43.90
2022-09-07T07:14:39.864Z,43.54
2022-09-07T07:17:10.527Z,43.90
2022-09-07T07:19:37.672Z,43.56
2022-09-07T07:22:18.703Z,43.16
2022-09-07T07:24:51.909Z,42.68
2022-09-07T07:27:19.112Z,41.81
2022-09-07T07:29:46.331Z,41.72
2022-09-07T07:32:13.456Z,41.16
2022-09-07T07:34:40.525Z,40.79
2022-09-07T07:37:07.534Z,40.39
2022-09-07T07:42:22.122Z,38.77
2022-09-07T07:44:49.232Z,38.39
2022-09-07T07:47:16.382Z,38.03
2022-09-07T07:49:43.547Z,37.04
2022-09-07T07:54:57.504Z,35.64
2022-09-07T07:57:24.646Z,35.44
2022-09-07T07:59:52.085Z,34.90
2022-09-07T08:02:19.190Z,34.31
2022-09-07T08:04:46.330Z,34.17
2022-09-07T08:07:13.510Z,33.42
2022-09-07T08:09:41.930Z,33.77
2022-09-07T08:12:11.521Z,33.71
2022-09-07T08:14:42.935Z,33.27
2022-09-07T08:17:14.940Z,32.90
2022-09-07T08:19:42.339Z,32.83
2022-09-07T08:22:10.974Z,32.72
2022-09-07T08:24:38.100Z,32.55
2022-09-07T08:27:05.516Z,32.05
2022-09-07T08:29:35.207Z,31.86
2022-09-07T08:32:05.202Z,32.16
2022-09-07T08:34:35.226Z,31.57
2022-09-07T08:37:02.260Z,31.90
2022-09-07T08:39:30.098Z,31.87
2022-09-07T08:42:03.495Z,31.58
2022-09-07T08:44:49.030Z,31.54
2022-09-07T08:47:32.264Z,31.39
2022-09-07T08:50:33.973Z,31.67
2022-09-07T08:53:14.604Z,31.14
2022-09-07T08:55:49.561Z,31.03
2022-09-07T08:58:48.216Z,31.46
2022-09-07T09:01:33.290Z,30.88
2022-09-07T09:04:17.904Z,31.04
2022-09-07T09:07:00.861Z,30.62
2022-09-07T09:09:52.038Z,30.62
2022-09-07T09:12:37.841Z,30.69
2022-09-07T09:15:32.410Z,30.98
2022-09-07T09:18:22.280Z,30.65
2022-09-07T09:20:52.523Z,30.80
2022-09-07T09:23:24.099Z,30.74
2022-09-07T09:25:56.860Z,30.69
2022-09-07T09:28:26.559Z,30.29
2022-09-07T09:30:56.063Z,30.32
2022-09-07T09:33:26.229Z,30.73
2022-09-07T09:35:56.535Z,29.79
2022-09-07T09:38:29.441Z,30.11
2022-09-07T09:40:58.448Z,29.51
2022-09-07T09:43:32.725Z,29.19
2022-09-07T09:46:17.463Z,29.39
2022-09-07T09:48:53.867Z,29.10
2022-09-07T09:54:25.494Z,29.19
2022-09-07T09:56:53.000Z,29.24
2022-09-07T10:05:31.351Z,28.82
2022-09-07T10:07:58.753Z,28.84
2022-09-07T10:10:27.699Z,28.79
2022-09-07T10:12:56.164Z,28.67
2022-09-07T10:15:41.897Z,28.66
2022-09-07T10:18:30.377Z,28.58
2022-09-07T10:21:21.049Z,28.56
2022-09-07T10:23:49.333Z,28.81
2022-09-07T10:26:32.301Z,28.48
2022-09-07T10:29:13.183Z,28.44
2022-09-07T10:32:06.613Z,28.39
2022-09-07T10:34:56.868Z,28.31
2022-09-07T10:37:53.111Z,28.40
2022-09-07T10:40:43.008Z,27.92
2022-09-07T10:43:22.143Z,27.68
2022-09-07T10:46:04.838Z,28.15
2022-09-07T10:48:36.097Z,27.83
2022-09-07T10:51:14.565Z,27.49
2022-09-07T10:57:04.075Z,27.75
2022-09-07T11:03:30.118Z,27.43
2022-09-07T11:06:15.520Z,27.34
2022-09-07T11:09:17.348Z,26.63
2022-09-07T11:12:04.282Z,26.54
2022-09-07T11:14:55.050Z,26.83
2022-09-07T11:17:23.745Z,27.13
2022-09-07T11:20:09.911Z,26.76
2022-09-07T11:22:47.722Z,26.63
2022-09-07T11:25:35.607Z,26.59
2022-09-07T11:28:13.422Z,26.74
2022-09-07T11:30:50.051Z,27.09
2022-09-07T11:33:24.989Z,26.56
2022-09-07T11:36:02.438Z,26.67
2022-09-07T11:38:39.537Z,26.41
2022-09-07T11:41:15.453Z,26.58
2022-09-07T11:43:47.312Z,26.42
2022-09-07T11:46:24.283Z,26.47
2022-09-07T11:48:54.906Z,26.44
2022-09-07T11:51:39.890Z,26.82
2022-09-07T11:54:43.992Z,26.70
2022-09-07T11:57:38.895Z,26.41
2022-09-07T12:00:11.408Z,26.90
2022-09-07T12:03:17.973Z,26.77
2022-09-07T12:06:25.778Z,27.12
2022-09-07T12:09:07.922Z,26.82
2022-09-07T12:12:12.586Z,26.66
2022-09-07T12:15:04.380Z,26.22
2022-09-07T12:18:01.078Z,26.48
2022-09-07T12:20:48.895Z,26.49
2022-09-07T12:23:15.862Z,26.63
2022-09-07T12:25:45.228Z,26.49
2022-09-07T12:28:24.431Z,26.45
2022-09-07T12:31:05.933Z,26.61
2022-09-07T12:33:36.044Z,27.00
2022-09-07T12:36:28.935Z,26.93
2022-09-07T12:39:20.980Z,26.49
2022-09-07T12:42:31.948Z,27.01
2022-09-07T12:44:38.369Z,27.14
2022-09-07T12:47:30.118Z,27.07
2022-09-07T12:50:06.328Z,26.89
2022-09-07T12:52:36.257Z,27.54
2022-09-07T12:56:15.504Z,27.75
2022-09-07T12:58:25.281Z,28.08
2022-09-07T13:01:10.792Z,27.72
2022-09-07T13:03:56.377Z,27.94
2022-09-07T13:07:10.745Z,27.82
2022-09-07T13:09:41.919Z,27.61
2022-09-07T13:15:44.009Z,27.76
2022-09-07T13:18:32.640Z,28.06
2022-09-07T13:21:08.396Z,28.60
2022-09-07T13:23:49.608Z,28.26
2022-09-07T13:26:55.076Z,28.54
2022-09-07T13:29:31.736Z,28.66
2022-09-07T13:33:07.938Z,28.49
2022-09-07T13:35:18.418Z,28.45
2022-09-07T13:37:59.239Z,28.39
2022-09-07T13:40:32.490Z,28.85
2022-09-07T13:43:01.068Z,28.79
2022-09-07T13:45:36.899Z,29.02
2022-09-07T13:48:25.449Z,29.06
2022-09-07T13:51:17.155Z,28.84
2022-09-07T13:53:56.315Z,28.58
2022-09-07T13:56:47.970Z,28.89
2022-09-07T13:59:21.725Z,28.56
2022-09-07T14:01:50.778Z,29.05
2022-09-07T14:04:20.617Z,29.21
2022-09-07T14:06:47.650Z,29.65
2022-09-07T14:09:16.279Z,29.56
2022-09-07T14:11:56.879Z,29.39
2022-09-07T14:14:29.737Z,29.56
2022-09-07T14:17:04.763Z,29.47
2022-09-07T14:19:42.576Z,29.28
2022-09-07T14:22:22.056Z,29.58
2022-09-07T14:24:53.499Z,29.63
2022-09-07T14:27:39.558Z,29.50
2022-09-07T14:30:19.732Z,29.80
2022-09-07T14:32:53.400Z,30.20
2022-09-07T14:35:23.581Z,29.51
2022-09-07T14:37:51.269Z,29.49
2022-09-07T14:40:22.799Z,29.97
2022-09-07T14:42:51.216Z,29.49
2022-09-07T14:45:31.066Z,30.06
2022-09-07T14:47:58.608Z,29.82
2022-09-07T14:50:25.524Z,29.83
2022-09-07T14:55:44.479Z,29.75
2022-09-07T14:58:14.235Z,29.40
2022-09-07T15:03:59.286Z,29.80
2022-09-07T15:09:36.415Z,29.61
2022-09-07T15:12:09.437Z,30.00
2022-09-07T15:14:36.626Z,29.86
2022-09-07T15:19:51.345Z,30.23
2022-09-07T15:22:19.113Z,30.42
2022-09-07T15:24:49.992Z,30.37
2022-09-07T15:27:21.928Z,30.34
2022-09-07T15:29:49.073Z,30.53
2022-09-07T15:32:18.196Z,30.65
2022-09-07T15:34:45.578Z,30.77
2022-09-07T15:40:01.473Z,31.02
2022-09-07T15:45:16.628Z,31.07
2022-09-07T15:47:48.171Z,31.01
2022-09-07T15:50:18.699Z,31.26
2022-09-07T15:52:46.378Z,31.77
2022-09-07T15:55:14.457Z,32.01
2022-09-07T15:57:59.356Z,31.77
2022-09-07T16:00:32.119Z,31.86
2022-09-07T16:03:08.102Z,31.85
2022-09-07T16:05:36.081Z,31.93
2022-09-07T16:10:55.689Z,32.27
2022-09-07T16:13:24.549Z,32.16
2022-09-07T16:15:52.084Z,32.26
2022-09-07T16:18:19.373Z,32.43
2022-09-07T16:20:47.294Z,32.52
2022-09-07T16:23:16.829Z,32.69
2022-09-07T16:25:57.310Z,32.62
2022-09-07T16:28:24.734Z,32.84
2022-09-07T16:30:51.810Z,33.07
2022-09-07T16:33:18.956Z,33.15
2022-09-07T16:35:59.476Z,33.16
2022-09-07T16:41:20.639Z,33.13
2022-09-07T16:43:47.947Z,33.15
2022-09-07T16:46:17.770Z,33.57
2022-09-07T16:48:45.587Z,33.39
2022-09-07T16:51:14.858Z,33.13
2022-09-07T16:53:42.886Z,33.33
2022-09-07T16:56:16.984Z,33.52
2022-09-07T16:58:46.300Z,33.45
2022-09-07T17:01:16.230Z,33.52
2022-09-07T17:03:44.077Z,33.60
2022-09-07T17:06:12.795Z,33.72
2022-09-07T17:08:40.735Z,33.83
2022-09-07T17:11:10.611Z,33.82
2022-09-07T17:13:39.566Z,33.79
2022-09-07T17:16:12.044Z,34.10
2022-09-07T17:21:36.630Z,34.10
2022-09-07T17:24:05.644Z,33.99
2022-09-07T17:26:32.969Z,34.49
2022-09-07T17:29:01.123Z,34.07
2022-09-07T17:34:19.884Z,34.42
2022-09-07T17:36:47.646Z,34.55
2022-09-07T17:39:17.735Z,34.67
2022-09-07T17:41:47.184Z,34.72
2022-09-07T17:44:14.510Z,34.94
2022-09-07T17:46:41.635Z,34.83
2022-09-07T17:49:16.888Z,34.84
2022-09-07T17:51:45.522Z,34.85
2022-09-07T17:54:15.907Z,35.35
2022-09-07T17:56:43.422Z,35.07
2022-09-07T18:01:58.582Z,35.12
2022-09-07T18:04:26.161Z,35.38
2022-09-07T18:06:54.522Z,35.53
2022-09-07T18:09:22.044Z,35.77
2022-09-07T18:11:50.297Z,35.67
2022-09-07T18:14:19.518Z,36.04
2022-09-07T18:16:50.110Z,36.14
2022-09-07T18:19:18.703Z,36.71
2022-09-07T18:21:48.104Z,36.77
2022-09-07T18:24:18.899Z,36.82
2022-09-07T18:26:51.796Z,37.04
2022-09-07T18:29:29.513Z,37.12
2022-09-07T18:31:59.639Z,37.02
2022-09-07T18:34:28.787Z,36.95
2022-09-07T18:36:56.153Z,37.34
2022-09-07T18:39:23.326Z,37.19
2022-09-07T18:41:50.582Z,37.30
2022-09-07T18:47:06.599Z,37.78
2022-09-07T18:49:34.380Z,37.84
2022-09-07T18:54:50.319Z,37.62
2022-09-07T18:57:17.506Z,37.73
2022-09-07T18:59:44.830Z,38.10
2022-09-07T19:02:12.405Z,37.89
2022-09-07T19:07:29.934Z,38.39
2022-09-07T19:09:58.371Z,37.93
2022-09-07T19:12:25.421Z,38.12
2022-09-07T19:14:52.527Z,38.00
2022-09-07T19:17:19.777Z,38.49
2022-09-07T19:19:47.279Z,38.52
2022-09-07T19:22:14.391Z,38.54
2022-09-07T19:24:41.470Z,38.35
2022-09-07T19:27:08.457Z,38.60
2022-09-07T19:29:35.681Z,38.69
2022-09-07T19:32:07.006Z,38.52
2022-09-07T19:34:36.573Z,38.69
2022-09-07T19:37:06.987Z,38.93
2022-09-07T19:39:33.964Z,38.94
2022-09-07T19:42:02.748Z,38.95
2022-09-07T19:44:30.028Z,38.82
2022-09-07T19:46:57.266Z,39.03
2022-09-07T19:49:24.543Z,39.34
2022-09-07T19:51:52.294Z,39.37
2022-09-07T19:54:19.624Z,39.08
2022-09-07T19:56:46.964Z,39.22
2022-09-07T19:59:14.711Z,39.62
2022-09-07T20:01:46.479Z,39.34
2022-09-07T20:04:20.342Z,39.53
2022-09-07T20:06:50.386Z,39.58
2022-09-07T20:09:19.093Z,39.54
2022-09-07T20:11:47.846Z,39.66
2022-09-07T20:14:18.573Z,39.49
2022-09-07T20:16:45.708Z,39.70
2022-09-07T20:19:16.390Z,39.38
2022-09-07T20:21:43.688Z,39.84
2022-09-07T20:24:14.795Z,39.63
2022-09-07T20:26:41.897Z,39.54
2022-09-07T20:29:27.682Z,40.01
2022-09-07T20:31:59.314Z,40.01
2022-09-07T20:34:27.588Z,39.90
2022-09-07T20:36:55.184Z,39.92
2022-09-07T20:39:22.288Z,40.04
2022-09-07T20:41:49.476Z,40.19
2022-09-07T20:44:17.379Z,40.50
2022-09-07T20:46:44.643Z,40.43
2022-09-07T20:49:11.832Z,40.41
2022-09-07T20:51:39.132Z,40.44
2022-09-07T20:54:07.373Z,40.32
2022-09-07T20:56:34.893Z,40.66
2022-09-07T20:59:03.753Z,40.63
2022-09-07T21:01:32.310Z,40.59
2022-09-07T21:04:02.152Z,40.59
2022-09-07T21:06:31.089Z,40.77
2022-09-07T21:08:58.635Z,40.66
2022-09-07T21:11:29.281Z,40.77
2022-09-07T21:13:58.514Z,40.99
2022-09-07T21:16:26.607Z,41.05
2022-09-07T21:18:56.547Z,40.89
2022-09-07T21:21:24.961Z,41.08
2022-09-07T21:24:00.289Z,41.23
2022-09-07T21:26:28.667Z,41.16
2022-09-07T21:28:57.467Z,41.12
2022-09-07T21:31:25.569Z,41.23
2022-09-07T21:33:57.853Z,41.00
2022-09-07T21:36:25.758Z,41.11
2022-09-07T21:38:54.453Z,41.24
2022-09-07T21:41:23.318Z,41.29
2022-09-07T21:43:55.481Z,41.37
2022-09-07T21:46:23.085Z,41.39
2022-09-07T21:48:50.236Z,41.54
2022-09-07T21:51:17.734Z,41.37
2022-09-07T21:53:44.780Z,41.39
2022-09-07T21:56:14.530Z,41.41
2022-09-07T21:58:43.850Z,41.33
2022-09-07T22:01:17.135Z,41.57
2022-09-07T22:03:46.656Z,41.57
2022-09-07T22:06:15.073Z,41.75
2022-09-07T22:08:42.916Z,41.65
2022-09-07T22:11:13.787Z,41.63
2022-09-07T22:13:41.606Z,41.38
2022-09-07T22:16:09.271Z,41.53
2022-09-07T22:18:38.108Z,41.83
2022-09-07T22:21:15.752Z,41.95
2022-09-07T22:23:45.670Z,41.95
2022-09-07T22:26:14.406Z,41.92
2022-09-07T22:28:42.234Z,41.99
2022-09-07T22:31:15.511Z,42.26
2022-09-07T22:33:43.568Z,42.14
2022-09-07T22:36:15.160Z,42.28
2022-09-07T22:38:44.043Z,42.17
2022-09-07T22:41:22.305Z,42.38
2022-09-07T22:43:51.136Z,42.17
2022-09-07T22:46:20.527Z,41.94
2022-09-07T22:48:48.518Z,42.09
2022-09-07T22:51:16.558Z,42.08
2022-09-07T22:53:44.699Z,42.05
2022-09-07T22:56:20.529Z,42.11
2022-09-07T22:58:50.228Z,42.12
2022-09-07T23:01:17.989Z,42.17
2022-09-07T23:03:45.713Z,42.13
2022-09-07T23:06:23.391Z,41.97
2022-09-07T23:08:51.600Z,42.09
2022-09-07T23:11:20.030Z,42.41
2022-09-07T23:13:51.261Z,42.24
2022-09-07T23:16:18.494Z,42.24
2022-09-07T23:18:46.293Z,42.04
2022-09-07T23:21:13.379Z,42.43
2022-09-07T23:23:40.638Z,42.56
2022-09-07T23:26:07.744Z,42.60
2022-09-07T23:28:35.149Z,42.67
2022-09-07T23:31:02.454Z,42.62
2022-09-07T23:33:30.581Z,42.48
2022-09-07T23:36:04.698Z,42.83
2022-09-07T23:38:32.615Z,42.76
2022-09-07T23:41:00.380Z,42.73
2022-09-07T23:43:29.090Z,43.02
2022-09-07T23:45:56.690Z,42.85
2022-09-07T23:48:24.166Z,42.91
2022-09-07T23:50:51.629Z,42.89
2022-09-07T23:53:19.261Z,42.70
2022-09-07T23:55:50.386Z,43.05
2022-09-07T23:58:18.148Z,43.16
